TALO2: Illinois River, Tahlequah, OK

                                SHEF ID:       TALO2     Illinois River near Tahlequah, O
STATION TYPE:
Regulating: Stage = 11.00, Flow = 10168

PRECIP STAGE STAGE(2) RIV-FLOW BAT-LOAD
in ft ft cfs volt
Ccp-Rev Ccp-Rev Ccp-Rev Ccp-Rev Ccp-Rev
(America/Chicago)
05/01 00:00 ---- 7.85 ---- 3678 12.25
05/01 01:00 ---- 7.81 ---- 3603 12.17
05/01 02:00 ---- 7.79 ---- 3566 11.93
05/01 03:00 ---- 7.75 ---- 3492 12.17
05/01 04:00 ---- 7.72 ---- 3437 12.17
05/01 05:00 ---- 7.69 ---- 3382 11.93
05/01 06:00 ---- 7.68 ---- 3363 11.86
05/01 07:00 ---- 7.66 ---- 3326 11.77
05/01 08:00 ---- 7.62 ---- 3253 11.77
05/01 09:00 ---- 7.60 ---- 3217 12.25
05/01 10:00 ---- 7.58 ---- 3180 13.05
05/01 11:00 ---- 7.55 ---- 3123 12.97
05/01 12:00 ---- 7.53 ---- 3085 12.81
05/01 13:00 ---- 7.50 ---- 3030 12.81
05/01 14:00 ---- 7.49 ---- 3011 12.65
05/01 15:00 ---- 7.47 ---- 2975 12.81
05/01 16:00 ---- 7.42 ---- 2885 12.73
05/01 17:00 ---- 7.42 ---- 2885 12.57
05/01 18:00 ---- 7.39 ---- 2831 12.41
05/01 19:00 ---- 7.39 ---- 2831 12.73
05/01 20:00 ---- 7.36 ---- 2778 12.49
05/01 21:00 ---- 7.35 ---- 2761 12.25
05/01 22:00 ---- 7.32 ---- 2709 12.17
05/01 23:00 ---- ---- ---- ---- ----
Data processed at Sat 02May2026 04:33 GMT

NOTICE: If you are parsing this page

Please convert to using our Data API. Starting early 2026 we will be migrating to: https://water.usace.army.mil with modern pages rendered in JavaScript. When this migration completes you will no longer be able to scrape this page! CWMSDataAPI (CDA)

Timeseries IDs (TSIDs)

TSIDs used from left to right in the data table
TAHL.Precip-Inc.Total.1Hour.0.Ccp-Rev
TAHL.Stage.Inst.1Hour.0.Ccp-Rev
TAHL.Stage-Alt.Inst.1Hour.0.Ccp-Rev
TAHL.Flow.Inst.1Hour.0.Ccp-Rev
TAHL.Volt-Battery Load.Inst.1Hour.0.Ccp-Rev

                            

All information presented herein is the property of the government of the United States of America and may be revised or deleted at any time without prior notice. Dissemination of this information without the expressed written consent of the Public Affairs Office, Tulsa District U.S. Army Corps of Engineers is strictly prohibited. These data are gathered electronically and, as presented, have NOT undergone any form of quality control. These data are NOT guaranteed to be valid or correct.